Time;durP1;ratioP1;P1;durP2;ratioP2;P2;SDS_P1;SDS_P2;PMS_P1;PMS_P2;Temp;Humidity;BMP_temperature;BMP_pressure;BME280_temperature;BME280_humidity;BME280_pressure;Samples;Min_cycle;Max_cycle;Signal;HPM_P1;HPM_P2
2021/01/10 00:04:12;;;;;;;28.60;20.40;;;;;;;;;;4849754;28;20851;-56
2021/01/10 00:06:38;;;;;;;26.62;21.52;;;;;;;;;;4196782;34;20209;-56
2021/01/10 00:09:04;;;;;;;31.05;22.10;;;;;;;;;;4195705;34;20122;-56
2021/01/10 00:11:30;;;;;;;26.58;22.15;;;;;;;;;;4206475;34;20528;-56
2021/01/10 00:13:56;;;;;;;29.08;21.55;;;;;;;;;;4199383;34;20126;-57
2021/01/10 00:16:22;;;;;;;27.10;20.48;;;;;;;;;;4179845;34;20121;-57
2021/01/10 00:18:48;;;;;;;26.85;20.75;;;;;;;;;;4192142;34;20118;-57
2021/01/10 00:21:13;;;;;;;29.83;22.73;;;;;;;;;;4192242;34;20165;-58
2021/01/10 00:23:39;;;;;;;29.08;22.20;;;;;;;;;;4206207;34;20133;-57
2021/01/10 00:26:05;;;;;;;29.73;22.42;;;;;;;;;;4206031;34;20121;-56
2021/01/10 00:28:31;;;;;;;30.80;22.02;;;;;;;;;;4193581;34;20689;-57
2021/01/10 00:30:57;;;;;;;28.65;21.50;;;;;;;;;;4206338;34;20198;-58
2021/01/10 00:33:23;;;;;;;26.10;21.73;;;;;;;;;;4206307;34;20196;-58
2021/01/10 00:35:49;;;;;;;29.05;23.10;;;;;;;;;;4192940;34;20134;-56
2021/01/10 00:38:15;;;;;;;31.08;22.95;;;;;;;;;;4205873;34;20457;-56
2021/01/10 00:40:41;;;;;;;31.50;23.33;;;;;;;;;;4192921;34;20126;-57
2021/01/10 00:43:08;;;;;;;29.37;22.08;;;;;;;;;;4205968;34;20128;-57
2021/01/10 00:45:34;;;;;;;27.05;21.33;;;;;;;;;;4205831;34;20141;-57
2021/01/10 00:47:59;;;;;;;28.17;22.37;;;;;;;;;;4205881;34;20106;-57
2021/01/10 00:50:25;;;;;;;28.45;22.13;;;;;;;;;;4205724;34;20136;-56
2021/01/10 00:52:51;;;;;;;28.30;22.05;;;;;;;;;;4193010;34;20541;-56
2021/01/10 00:55:17;;;;;;;27.17;21.83;;;;;;;;;;4205671;34;20129;-57
2021/01/10 00:57:43;;;;;;;30.08;23.48;;;;;;;;;;4205708;34;20125;-57
2021/01/10 01:00:13;;;;;;;31.20;23.02;;;;;;;;;;4192747;34;20498;-57
2021/01/10 01:02:39;;;;;;;27.27;22.02;;;;;;;;;;4205834;34;20197;-57
2021/01/10 01:05:05;;;;;;;31.85;23.10;;;;;;;;;;4205189;34;20541;-57
2021/01/10 01:07:31;;;;;;;29.25;22.65;;;;;;;;;;4205784;34;20165;-56
2021/01/10 01:09:57;;;;;;;31.10;23.48;;;;;;;;;;4204607;34;20117;-56
2021/01/10 01:12:23;;;;;;;27.52;22.08;;;;;;;;;;4206018;34;20117;-56
2021/01/10 01:14:49;;;;;;;28.92;21.33;;;;;;;;;;4205401;34;20113;-56
2021/01/10 01:17:15;;;;;;;30.52;22.30;;;;;;;;;;4205587;34;20132;-55
2021/01/10 01:19:41;;;;;;;27.08;21.02;;;;;;;;;;4205763;34;20485;-56
2021/01/10 01:22:06;;;;;;;27.48;21.80;;;;;;;;;;4205680;34;20117;-56
2021/01/10 01:24:32;;;;;;;27.20;21.50;;;;;;;;;;4205513;34;20120;-58
2021/01/10 01:26:58;;;;;;;29.75;22.55;;;;;;;;;;4192787;34;20113;-57
2021/01/10 01:29:24;;;;;;;29.27;22.23;;;;;;;;;;4205418;34;20102;-57
2021/01/10 01:31:50;;;;;;;25.77;21.87;;;;;;;;;;4205545;34;20545;-57
2021/01/10 01:34:16;;;;;;;25.27;21.52;;;;;;;;;;4205506;34;20470;-58
2021/01/10 01:36:42;;;;;;;27.17;21.37;;;;;;;;;;4205543;34;20549;-58
2021/01/10 01:39:08;;;;;;;29.87;21.75;;;;;;;;;;4205581;34;20207;-57
2021/01/10 01:41:37;;;;;;;26.48;20.62;;;;;;;;;;4205437;34;20102;-57
2021/01/10 01:44:03;;;;;;;26.00;21.42;;;;;;;;;;4205370;34;20478;-57
2021/01/10 01:46:33;;;;;;;28.40;22.33;;;;;;;;;;4192615;34;20118;-56
2021/01/10 01:49:02;;;;;;;35.10;30.45;;;;;;;;;;4192370;34;20229;-58
2021/01/10 01:51:28;;;;;;;33.67;29.37;;;;;;;;;;4205411;34;20085;-58
2021/01/10 01:53:54;;;;;;;25.45;20.00;;;;;;;;;;4192415;34;20134;-57
2021/01/10 01:56:20;;;;;;;24.70;20.95;;;;;;;;;;4192582;34;20206;-58
2021/01/10 01:59:09;;;;;;;24.40;20.20;;;;;;;;;;4205204;34;20137;-59
2021/01/10 02:01:36;;;;;;;27.25;20.73;;;;;;;;;;4201497;34;20113;-58
2021/01/10 02:04:25;;;;;;;24.10;20.55;;;;;;;;;;4192523;34;20477;-59
2021/01/10 02:07:03;;;;;;;26.35;20.05;;;;;;;;;;4205174;34;20120;-58
2021/01/10 02:09:29;;;;;;;26.25;20.90;;;;;;;;;;4205201;34;20207;-57
2021/01/10 02:11:55;;;;;;;25.52;19.80;;;;;;;;;;4192416;34;20465;-58
2021/01/10 02:14:23;;;;;;;26.08;20.40;;;;;;;;;;4192458;34;20109;-58
2021/01/10 02:16:49;;;;;;;26.30;19.50;;;;;;;;;;4192333;34;20221;-57
2021/01/10 02:19:22;;;;;;;25.95;19.83;;;;;;;;;;4204958;34;20121;-59
2021/01/10 02:21:50;;;;;;;25.37;19.58;;;;;;;;;;4180940;34;20105;-59
2021/01/10 02:24:16;;;;;;;27.60;21.45;;;;;;;;;;4192160;34;20555;-58
2021/01/10 02:26:41;;;;;;;26.67;19.30;;;;;;;;;;4192302;34;20202;-58
2021/01/10 02:29:07;;;;;;;24.73;19.50;;;;;;;;;;4180735;34;20148;-58
2021/01/10 02:31:35;;;;;;;22.55;18.52;;;;;;;;;;4192310;34;20148;-53
2021/01/10 02:34:01;;;;;;;26.62;20.35;;;;;;;;;;4181054;34;20106;-57
2021/01/10 02:36:58;;;;;;;22.92;19.33;;;;;;;;;;4192254;34;20079;-56
2021/01/10 02:39:32;;;;;;;25.67;19.27;;;;;;;;;;4204835;34;20124;-57
2021/01/10 02:42:22;;;;;;;24.20;19.70;;;;;;;;;;4205005;34;20112;-57
2021/01/10 02:45:00;;;;;;;26.62;20.40;;;;;;;;;;4192021;34;20110;-57
2021/01/10 02:47:26;;;;;;;27.73;20.85;;;;;;;;;;4181100;34;20109;-56
2021/01/10 02:49:52;;;;;;;23.67;19.85;;;;;;;;;;4191904;34;20094;-56
2021/01/10 02:52:18;;;;;;;26.37;19.37;;;;;;;;;;4204938;34;20113;-56
2021/01/10 02:54:44;;;;;;;27.75;19.05;;;;;;;;;;4192136;34;20110;-58
2021/01/10 02:57:20;;;;;;;22.70;19.35;;;;;;;;;;4204852;34;20198;-58
2021/01/10 02:59:46;;;;;;;26.33;20.45;;;;;;;;;;4191869;34;20144;-58
2021/01/10 03:02:13;;;;;;;27.42;20.25;;;;;;;;;;4192088;34;20112;-57
2021/01/10 03:04:39;;;;;;;26.35;19.45;;;;;;;;;;4191962;34;20139;-57
2021/01/10 03:07:06;;;;;;;23.40;19.48;;;;;;;;;;4191885;34;20121;-57
2021/01/10 03:09:32;;;;;;;24.92;19.05;;;;;;;;;;4191824;34;20133;-58
2021/01/10 03:12:14;;;;;;;23.77;20.10;;;;;;;;;;4191789;34;20121;-58
2021/01/10 03:14:44;;;;;;;24.02;19.85;;;;;;;;;;4204525;34;20128;-58
2021/01/10 03:17:37;;;;;;;28.70;20.40;;;;;;;;;;4204615;34;20177;-57
2021/01/10 03:20:10;;;;;;;22.87;19.08;;;;;;;;;;4192631;34;20112;-57
2021/01/10 03:22:36;;;;;;;22.37;19.62;;;;;;;;;;4204897;34;20109;-57
2021/01/10 03:25:03;;;;;;;23.60;18.62;;;;;;;;;;4204435;34;20125;-57
2021/01/10 03:27:29;;;;;;;25.17;20.30;;;;;;;;;;4204679;34;20105;-56
2021/01/10 03:29:55;;;;;;;26.98;21.20;;;;;;;;;;4204614;34;20109;-57
2021/01/10 03:32:21;;;;;;;23.67;20.37;;;;;;;;;;4204199;34;20110;-57
2021/01/10 03:34:47;;;;;;;26.42;20.80;;;;;;;;;;4203912;34;20535;-56
2021/01/10 03:37:13;;;;;;;25.10;20.92;;;;;;;;;;4204499;34;20098;-57
2021/01/10 03:39:39;;;;;;;25.77;20.77;;;;;;;;;;4191675;34;20185;-56
2021/01/10 03:42:05;;;;;;;26.00;20.73;;;;;;;;;;4204657;34;20468;-57
2021/01/10 03:44:31;;;;;;;25.88;20.33;;;;;;;;;;4191436;34;20158;-56
2021/01/10 03:46:57;;;;;;;26.85;21.05;;;;;;;;;;4204356;34;20145;-57
2021/01/10 03:49:23;;;;;;;26.73;20.67;;;;;;;;;;4204211;34;20132;-59
2021/01/10 03:51:49;;;;;;;27.13;20.40;;;;;;;;;;4191593;34;20545;-55
2021/01/10 03:54:15;;;;;;;27.27;20.20;;;;;;;;;;4204184;34;20185;-58
2021/01/10 03:56:40;;;;;;;25.80;19.45;;;;;;;;;;4204266;34;20121;-58
2021/01/10 03:59:06;;;;;;;23.35;20.05;;;;;;;;;;4204099;34;20524;-59
2021/01/10 04:01:32;;;;;;;26.42;20.55;;;;;;;;;;4204250;34;20121;-58
2021/01/10 04:03:58;;;;;;;24.83;19.77;;;;;;;;;;4203979;34;20539;-59
2021/01/10 04:06:24;;;;;;;28.15;21.10;;;;;;;;;;4204013;34;20326;-59
2021/01/10 04:08:50;;;;;;;26.27;20.45;;;;;;;;;;4203947;34;20220;-58
2021/01/10 04:11:16;;;;;;;26.85;21.17;;;;;;;;;;4204196;34;20209;-58
2021/01/10 04:13:42;;;;;;;24.35;19.75;;;;;;;;;;4191397;34;20672;-57
2021/01/10 04:16:08;;;;;;;26.27;20.73;;;;;;;;;;4204219;34;20158;-57
2021/01/10 04:18:33;;;;;;;25.35;20.35;;;;;;;;;;4203853;34;20102;-57
2021/01/10 04:21:01;;;;;;;28.77;21.48;;;;;;;;;;4203936;34;20136;-55
2021/01/10 04:23:27;;;;;;;27.10;22.85;;;;;;;;;;4190972;34;20105;-57
2021/01/10 04:25:53;;;;;;;28.92;23.00;;;;;;;;;;4203802;34;20134;-57
2021/01/10 04:28:19;;;;;;;26.90;21.58;;;;;;;;;;4203883;34;20129;-57
2021/01/10 04:30:45;;;;;;;28.45;21.83;;;;;;;;;;4203664;34;20109;-58
2021/01/10 04:33:11;;;;;;;27.70;21.23;;;;;;;;;;4203851;34;20528;-59
2021/01/10 04:35:37;;;;;;;27.95;21.65;;;;;;;;;;4203554;34;20105;-58
2021/01/10 04:38:03;;;;;;;25.95;21.70;;;;;;;;;;4203604;34;20447;-56
2021/01/10 04:40:29;;;;;;;30.70;22.67;;;;;;;;;;4203988;34;20090;-57
2021/01/10 04:42:55;;;;;;;28.67;23.35;;;;;;;;;;4190964;34;20177;-58
2021/01/10 04:45:21;;;;;;;29.27;21.87;;;;;;;;;;4192347;34;20130;-56
2021/01/10 04:47:47;;;;;;;26.15;21.67;;;;;;;;;;4192961;34;20132;-56
2021/01/10 04:50:13;;;;;;;31.73;23.48;;;;;;;;;;4192739;34;20126;-54
2021/01/10 04:52:39;;;;;;;30.77;24.60;;;;;;;;;;4194727;34;20114;-54
2021/01/10 04:55:06;;;;;;;33.00;25.15;;;;;;;;;;4205265;34;20097;-54
2021/01/10 04:57:33;;;;;;;32.42;24.33;;;;;;;;;;4205984;34;20105;-56
2021/01/10 04:59:59;;;;;;;33.22;23.85;;;;;;;;;;4205757;34;20121;-53
2021/01/10 05:02:26;;;;;;;33.90;26.65;;;;;;;;;;4193120;34;20110;-54
2021/01/10 05:04:53;;;;;;;32.15;24.20;;;;;;;;;;4192622;34;20459;-54
2021/01/10 05:07:20;;;;;;;35.50;26.30;;;;;;;;;;4192836;34;20610;-56
2021/01/10 05:09:46;;;;;;;31.98;24.12;;;;;;;;;;4205770;34;20133;-57
2021/01/10 05:12:13;;;;;;;31.23;24.87;;;;;;;;;;4205253;34;20608;-53
2021/01/10 05:14:39;;;;;;;30.12;24.37;;;;;;;;;;4205224;34;20144;-58
2021/01/10 05:17:04;;;;;;;33.88;25.10;;;;;;;;;;4205521;34;20120;-58
2021/01/10 05:19:30;;;;;;;30.25;24.55;;;;;;;;;;4192728;34;20125;-58
2021/01/10 05:21:56;;;;;;;33.30;23.62;;;;;;;;;;4192742;34;20114;-57
2021/01/10 05:24:22;;;;;;;35.75;26.42;;;;;;;;;;4205449;34;20474;-58
2021/01/10 05:26:48;;;;;;;31.23;26.40;;;;;;;;;;4192639;34;20107;-56
2021/01/10 05:29:14;;;;;;;32.55;25.50;;;;;;;;;;4192596;34;20129;-55
2021/01/10 05:31:42;;;;;;;33.15;27.48;;;;;;;;;;4205927;34;20098;-58
2021/01/10 05:34:08;;;;;;;32.13;26.62;;;;;;;;;;4192536;34;20538;-59
2021/01/10 05:36:36;;;;;;;35.10;27.83;;;;;;;;;;4205735;34;20120;-59
2021/01/10 05:39:24;;;;;;;37.00;27.60;;;;;;;;;;4205135;34;20106;-60
2021/01/10 05:41:56;;;;;;;35.63;27.83;;;;;;;;;;4192563;34;20094;-59
2021/01/10 05:44:46;;;;;;;34.08;27.13;;;;;;;;;;4205265;34;20149;-56
2021/01/10 05:47:13;;;;;;;33.97;27.80;;;;;;;;;;4194634;34;20110;-57
2021/01/10 05:49:52;;;;;;;32.97;27.15;;;;;;;;;;4205405;34;20221;-54
2021/01/10 05:52:18;;;;;;;32.80;27.55;;;;;;;;;;4181678;34;20101;-61
2021/01/10 05:54:48;;;;;;;35.53;26.48;;;;;;;;;;4205212;34;20096;-51
2021/01/10 05:57:17;;;;;;;37.13;29.23;;;;;;;;;;4209282;34;20128;-51
2021/01/10 05:59:47;;;;;;;33.47;28.33;;;;;;;;;;4205579;34;20120;-51
2021/01/10 06:02:13;;;;;;;36.47;28.27;;;;;;;;;;4212356;34;20122;-52
2021/01/10 06:04:39;;;;;;;34.13;28.80;;;;;;;;;;4203351;34;20218;-57
2021/01/10 06:07:05;;;;;;;36.25;28.73;;;;;;;;;;4201122;34;20547;-55
2021/01/10 06:09:48;;;;;;;31.87;25.83;;;;;;;;;;4204076;34;20105;-56
2021/01/10 06:12:24;;;;;;;31.75;24.90;;;;;;;;;;4203036;34;20110;-56
2021/01/10 06:14:50;;;;;;;30.80;23.80;;;;;;;;;;4202871;34;20128;-53
2021/01/10 06:17:16;;;;;;;30.90;25.40;;;;;;;;;;4215541;34;20524;-52
2021/01/10 06:19:44;;;;;;;30.92;24.67;;;;;;;;;;4216836;34;20125;-54
2021/01/10 06:22:17;;;;;;;33.78;25.40;;;;;;;;;;4192631;34;20121;-54
2021/01/10 06:24:48;;;;;;;30.50;23.85;;;;;;;;;;4192680;34;20180;-54
2021/01/10 06:27:22;;;;;;;28.45;23.05;;;;;;;;;;4207085;34;20113;-52
2021/01/10 06:29:55;;;;;;;30.45;24.15;;;;;;;;;;4205939;34;20132;-52
2021/01/10 06:32:23;;;;;;;32.15;24.50;;;;;;;;;;4218917;34;20104;-51
2021/01/10 06:34:49;;;;;;;27.37;22.77;;;;;;;;;;4218712;34;20094;-56
2021/01/10 06:37:14;;;;;;;31.02;23.27;;;;;;;;;;4193477;34;20117;-59
2021/01/10 06:39:46;;;;;;;25.95;21.77;;;;;;;;;;4218954;34;20143;-57
2021/01/10 06:42:13;;;;;;;26.50;21.73;;;;;;;;;;4218860;34;20097;-56
2021/01/10 06:44:45;;;;;;;26.75;21.55;;;;;;;;;;4218795;34;20129;-49
2021/01/10 06:47:21;;;;;;;25.52;20.85;;;;;;;;;;4206328;34;20090;-53
2021/01/10 06:49:47;;;;;;;28.52;22.40;;;;;;;;;;4218648;34;20115;-51
2021/01/10 06:52:12;;;;;;;24.33;20.37;;;;;;;;;;4194640;34;20181;-57
2021/01/10 06:54:43;;;;;;;23.33;18.58;;;;;;;;;;4205914;34;20129;-55
2021/01/10 06:57:09;;;;;;;28.92;19.98;;;;;;;;;;4218620;34;20113;-56
2021/01/10 06:59:55;;;;;;;22.98;20.12;;;;;;;;;;4206019;34;20139;-48
2021/01/10 07:02:21;;;;;;;22.83;19.25;;;;;;;;;;4218738;34;20117;-56
2021/01/10 07:04:54;;;;;;;25.77;19.65;;;;;;;;;;4218403;34;20128;-57
2021/01/10 07:07:42;;;;;;;25.12;19.80;;;;;;;;;;4197762;34;20116;-55
2021/01/10 07:10:09;;;;;;;27.20;19.50;;;;;;;;;;4178695;34;20153;-53
2021/01/10 07:12:35;;;;;;;22.65;18.42;;;;;;;;;;4178327;34;20113;-50
2021/01/10 07:15:23;;;;;;;21.50;18.00;;;;;;;;;;4190707;34;20102;-53
2021/01/10 07:18:02;;;;;;;23.33;18.37;;;;;;;;;;4190846;34;20194;-52
2021/01/10 07:20:41;;;;;;;23.87;20.08;;;;;;;;;;4190783;34;20514;-56
2021/01/10 07:23:26;;;;;;;23.77;17.10;;;;;;;;;;4178883;34;20161;-53
2021/01/10 07:25:52;;;;;;;24.27;18.73;;;;;;;;;;4190664;34;20116;-52
2021/01/10 07:28:32;;;;;;;23.17;19.00;;;;;;;;;;4178013;34;20534;-54
2021/01/10 07:31:06;;;;;;;23.50;17.98;;;;;;;;;;4166622;34;20149;-50
2021/01/10 07:33:32;;;;;;;22.33;17.62;;;;;;;;;;4190769;34;20137;-54
2021/01/10 07:35:58;;;;;;;24.85;18.67;;;;;;;;;;4190495;34;20154;-52
2021/01/10 07:38:26;;;;;;;20.75;17.10;;;;;;;;;;4190600;34;20123;-51
2021/01/10 07:40:53;;;;;;;20.00;16.05;;;;;;;;;;4177922;34;20206;-52
2021/01/10 07:43:19;;;;;;;20.45;16.87;;;;;;;;;;4177927;34;20119;-56
2021/01/10 07:45:44;;;;;;;18.77;15.43;;;;;;;;;;4190399;34;20142;-58
2021/01/10 07:48:26;;;;;;;17.98;16.02;;;;;;;;;;4190633;34;20204;-57
2021/01/10 07:51:14;;;;;;;18.95;15.52;;;;;;;;;;4177958;34;20281;-57
2021/01/10 07:53:48;;;;;;;17.05;14.82;;;;;;;;;;4178449;34;20090;-57
2021/01/10 07:56:15;;;;;;;19.60;15.18;;;;;;;;;;4190401;34;20122;-52
2021/01/10 07:58:41;;;;;;;17.67;14.38;;;;;;;;;;4190373;34;20614;-55
2021/01/10 08:01:07;;;;;;;17.95;15.00;;;;;;;;;;4177568;34;20178;-52
2021/01/10 08:03:32;;;;;;;17.23;14.32;;;;;;;;;;4190432;34;20546;-57
2021/01/10 08:06:05;;;;;;;17.98;14.00;;;;;;;;;;4190174;34;20129;-57
2021/01/10 08:08:42;;;;;;;22.02;15.52;;;;;;;;;;4190610;34;20093;-56
2021/01/10 08:11:08;;;;;;;17.80;14.65;;;;;;;;;;4189141;34;20597;-52
2021/01/10 08:13:34;;;;;;;15.70;12.65;;;;;;;;;;4176271;34;20090;-50
2021/01/10 08:16:12;;;;;;;16.10;12.27;;;;;;;;;;4190073;34;20102;-50
2021/01/10 08:18:43;;;;;;;15.65;11.77;;;;;;;;;;4177754;34;20102;-51
2021/01/10 08:21:09;;;;;;;14.40;12.20;;;;;;;;;;4192307;34;20110;-50
2021/01/10 08:23:36;;;;;;;14.87;12.35;;;;;;;;;;4191741;34;20544;-55
2021/01/10 08:26:04;;;;;;;15.18;12.90;;;;;;;;;;4179348;34;20217;-54
2021/01/10 08:28:33;;;;;;;12.98;11.02;;;;;;;;;;4192334;34;20145;-56
2021/01/10 08:31:03;;;;;;;73.03;15.70;;;;;;;;;;4192171;34;20106;-57
2021/01/10 08:33:29;;;;;;;12.30;10.88;;;;;;;;;;4196302;34;20254;-55
2021/01/10 08:36:08;;;;;;;12.30;10.73;;;;;;;;;;4198365;34;20177;-57
2021/01/10 08:38:35;;;;;;;12.02;10.02;;;;;;;;;;4189750;34;20210;-55
2021/01/10 08:41:01;;;;;;;12.50;10.82;;;;;;;;;;4205697;34;20208;-53
2021/01/10 08:43:27;;;;;;;12.90;10.27;;;;;;;;;;4205641;34;20109;-53
2021/01/10 08:45:53;;;;;;;10.57;9.40;;;;;;;;;;4205323;34;20545;-53
2021/01/10 08:48:19;;;;;;;10.77;9.77;;;;;;;;;;4205470;34;20128;-54
2021/01/10 08:50:45;;;;;;;14.07;11.12;;;;;;;;;;4205899;34;20474;-56
2021/01/10 08:53:11;;;;;;;11.77;9.65;;;;;;;;;;4205052;34;20572;-53
2021/01/10 08:55:41;;;;;;;13.05;10.98;;;;;;;;;;4204730;34;20296;-56
2021/01/10 08:58:15;;;;;;;11.27;10.20;;;;;;;;;;4204662;34;20487;-59
2021/01/10 09:00:44;;;;;;;12.13;10.82;;;;;;;;;;4187147;34;20136;-57
2021/01/10 09:03:17;;;;;;;12.45;10.20;;;;;;;;;;4197500;34;20650;-57
2021/01/10 09:05:44;;;;;;;12.05;10.88;;;;;;;;;;4207746;34;20537;-57
2021/01/10 09:08:20;;;;;;;11.77;10.25;;;;;;;;;;4188067;34;20292;-57
2021/01/10 09:10:53;;;;;;;12.02;10.88;;;;;;;;;;4184955;34;20093;-57
2021/01/10 09:13:19;;;;;;;10.35;9.35;;;;;;;;;;4168540;34;20106;-57
2021/01/10 09:15:45;;;;;;;11.35;10.25;;;;;;;;;;4167635;34;20121;-57
2021/01/10 09:18:17;;;;;;;11.10;9.90;;;;;;;;;;4182258;34;20129;-57
2021/01/10 09:21:04;;;;;;;10.77;9.38;;;;;;;;;;4199991;34;20581;-57
2021/01/10 09:23:30;;;;;;;13.32;10.82;;;;;;;;;;4209785;34;20081;-53
2021/01/10 09:25:56;;;;;;;11.50;10.23;;;;;;;;;;4186396;34;20090;-52
2021/01/10 09:28:22;;;;;;;12.85;10.45;;;;;;;;;;4210483;34;20518;-57
2021/01/10 09:30:55;;;;;;;10.88;9.77;;;;;;;;;;4197325;34;20489;-58
2021/01/10 09:33:31;;;;;;;11.68;10.48;;;;;;;;;;4210561;34;20120;-57
2021/01/10 09:35:58;;;;;;;13.57;10.63;;;;;;;;;;4181524;34;20792;-56
2021/01/10 09:38:29;;;;;;;12.27;10.73;;;;;;;;;;4194548;34;20094;-56
2021/01/10 09:41:08;;;;;;;12.27;10.70;;;;;;;;;;4209095;34;20206;-56
2021/01/10 09:43:36;;;;;;;12.40;11.10;;;;;;;;;;4210096;34;20133;-56
2021/01/10 09:46:03;;;;;;;11.00;9.77;;;;;;;;;;4214248;34;20145;-56
2021/01/10 09:48:29;;;;;;;11.60;10.40;;;;;;;;;;4210630;34;20101;-56
2021/01/10 09:50:55;;;;;;;11.02;9.93;;;;;;;;;;4210298;34;20114;-52
2021/01/10 09:53:25;;;;;;;9.95;8.95;;;;;;;;;;4205479;34;20131;-58
2021/01/10 09:55:51;;;;;;;12.43;10.18;;;;;;;;;;4191449;34;20116;-58
2021/01/10 09:58:17;;;;;;;11.90;9.70;;;;;;;;;;4191402;34;20103;-58
2021/01/10 10:00:56;;;;;;;10.52;9.43;;;;;;;;;;4204569;34;20120;-58
2021/01/10 10:03:23;;;;;;;12.27;9.80;;;;;;;;;;4209330;34;20121;-53
2021/01/10 10:05:58;;;;;;;11.45;10.23;;;;;;;;;;4188649;34;20120;-59
2021/01/10 10:08:24;;;;;;;12.57;10.95;;;;;;;;;;4201169;34;20118;-60
2021/01/10 10:10:50;;;;;;;10.77;9.68;;;;;;;;;;4165393;34;20197;-60
2021/01/10 10:13:29;;;;;;;11.02;9.93;;;;;;;;;;4189011;34;20600;-58
2021/01/10 10:15:55;;;;;;;16.95;10.70;;;;;;;;;;4188838;34;20124;-59
2021/01/10 10:18:31;;;;;;;10.57;9.18;;;;;;;;;;4189053;34;20121;-59
2021/01/10 10:20:58;;;;;;;10.52;9.48;;;;;;;;;;4188823;34;20141;-59
2021/01/10 10:23:24;;;;;;;9.63;8.63;;;;;;;;;;4186579;34;20125;-59
2021/01/10 10:25:51;;;;;;;10.65;9.25;;;;;;;;;;4204882;34;20533;-61
2021/01/10 10:28:18;;;;;;;9.20;8.30;;;;;;;;;;4198383;34;20105;-58
2021/01/10 10:30:46;;;;;;;9.63;8.40;;;;;;;;;;4204839;34;20447;-58
2021/01/10 10:33:12;;;;;;;9.95;8.95;;;;;;;;;;4204901;34;20110;-57
2021/01/10 10:35:38;;;;;;;10.05;9.00;;;;;;;;;;4192030;34;20145;-57
2021/01/10 10:38:04;;;;;;;10.10;9.07;;;;;;;;;;4192353;34;20565;-57
2021/01/10 10:40:30;;;;;;;9.57;8.65;;;;;;;;;;4216273;34;20117;-57
2021/01/10 10:42:56;;;;;;;9.02;8.13;;;;;;;;;;4205573;34;20109;-60
2021/01/10 10:45:22;;;;;;;11.48;9.27;;;;;;;;;;4191569;34;20137;-58
2021/01/10 10:47:48;;;;;;;10.27;9.27;;;;;;;;;;4209474;34;20577;-59
2021/01/10 10:50:14;;;;;;;11.15;9.82;;;;;;;;;;4216659;34;20105;-57
2021/01/10 10:52:41;;;;;;;10.38;9.05;;;;;;;;;;4218765;34;20102;-60
2021/01/10 10:55:07;;;;;;;10.80;9.63;;;;;;;;;;4205893;34;20121;-57
2021/01/10 10:57:35;;;;;;;10.75;8.52;;;;;;;;;;4219006;34;20526;-56
2021/01/10 11:00:04;;;;;;;10.23;9.23;;;;;;;;;;4218499;34;20133;-58
2021/01/10 11:02:30;;;;;;;10.68;9.10;;;;;;;;;;4218637;34;20569;-60
2021/01/10 11:04:56;;;;;;;11.63;8.88;;;;;;;;;;4218149;34;20132;-64
2021/01/10 11:07:22;;;;;;;8.85;7.78;;;;;;;;;;4197235;34;20278;-59
2021/01/10 11:09:48;;;;;;;10.60;8.00;;;;;;;;;;4201073;34;20504;-59
2021/01/10 11:12:18;;;;;;;11.60;9.30;;;;;;;;;;4191017;34;20536;-60
2021/01/10 11:14:49;;;;;;;13.57;9.50;;;;;;;;;;4186263;34;20201;-61
2021/01/10 11:17:15;;;;;;;11.15;9.23;;;;;;;;;;4202039;34;20634;-57
2021/01/10 11:19:41;;;;;;;10.55;9.43;;;;;;;;;;4197625;34;20204;-61
2021/01/10 11:22:07;;;;;;;9.80;8.80;;;;;;;;;;4191174;34;20226;-59
2021/01/10 11:24:34;;;;;;;10.65;9.27;;;;;;;;;;4188490;34;20583;-58
2021/01/10 11:27:00;;;;;;;9.60;8.60;;;;;;;;;;4204768;34;20202;-56
2021/01/10 11:29:26;;;;;;;9.20;8.23;;;;;;;;;;4180420;34;20114;-56
2021/01/10 11:31:52;;;;;;;10.18;9.05;;;;;;;;;;4188494;34;20140;-60
2021/01/10 11:34:18;;;;;;;9.68;8.70;;;;;;;;;;4190792;34;20133;-57
2021/01/10 11:36:48;;;;;;;10.15;9.00;;;;;;;;;;4190710;34;20486;-57
2021/01/10 11:39:15;;;;;;;10.57;9.35;;;;;;;;;;4190627;34;20545;-58
2021/01/10 11:41:44;;;;;;;12.65;9.85;;;;;;;;;;4190616;34;20117;-60
2021/01/10 11:44:11;;;;;;;11.52;8.88;;;;;;;;;;4177751;34;20213;-59
2021/01/10 11:46:37;;;;;;;10.13;9.15;;;;;;;;;;4186041;34;20225;-61
2021/01/10 11:49:03;;;;;;;11.23;9.02;;;;;;;;;;4199187;34;20109;-59
2021/01/10 11:51:29;;;;;;;10.88;9.57;;;;;;;;;;4188200;34;20462;-59
2021/01/10 11:53:55;;;;;;;10.45;8.70;;;;;;;;;;4176795;34;20671;-58
2021/01/10 11:56:20;;;;;;;13.00;9.98;;;;;;;;;;4191748;34;20117;-52
2021/01/10 11:58:46;;;;;;;14.65;10.30;;;;;;;;;;4191691;34;20631;-51
2021/01/10 12:01:12;;;;;;;10.07;8.73;;;;;;;;;;4191815;34;20465;-54
2021/01/10 12:03:38;;;;;;;10.45;9.35;;;;;;;;;;4192757;34;20187;-53
2021/01/10 12:06:04;;;;;;;11.35;9.25;;;;;;;;;;4192129;34;20573;-55
2021/01/10 12:08:30;;;;;;;12.23;9.50;;;;;;;;;;4192566;34;20211;-59
2021/01/10 12:10:56;;;;;;;12.18;9.68;;;;;;;;;;4192570;34;20149;-60
2021/01/10 12:13:22;;;;;;;11.48;9.07;;;;;;;;;;4191860;34;20246;-61
2021/01/10 12:15:48;;;;;;;11.90;9.35;;;;;;;;;;4198374;34;20182;-59
2021/01/10 12:18:14;;;;;;;10.35;8.93;;;;;;;;;;4193728;34;20110;-60
2021/01/10 12:20:40;;;;;;;15.13;9.55;;;;;;;;;;4206140;34;20112;-65
2021/01/10 12:23:06;;;;;;;12.15;9.55;;;;;;;;;;4206195;34;20122;-60
2021/01/10 12:25:32;;;;;;;13.60;10.18;;;;;;;;;;4206251;34;20547;-53
2021/01/10 12:27:58;;;;;;;12.50;10.40;;;;;;;;;;4206387;34;20105;-59
2021/01/10 12:30:25;;;;;;;13.43;10.15;;;;;;;;;;4206060;34;20113;-58
2021/01/10 12:32:51;;;;;;;13.20;9.65;;;;;;;;;;4206066;34;20446;-59
2021/01/10 12:35:18;;;;;;;11.73;9.82;;;;;;;;;;4205967;34;20118;-57
2021/01/10 12:37:45;;;;;;;12.30;10.93;;;;;;;;;;4205992;34;20121;-59
2021/01/10 12:40:12;;;;;;;13.20;10.43;;;;;;;;;;4205979;34;20108;-60
2021/01/10 12:42:38;;;;;;;12.30;9.75;;;;;;;;;;4206213;34;20201;-61
2021/01/10 12:45:09;;;;;;;12.93;10.00;;;;;;;;;;4206118;34;20443;-58
2021/01/10 12:47:35;;;;;;;11.85;10.18;;;;;;;;;;4206114;34;20113;-59
2021/01/10 12:50:01;;;;;;;12.07;10.18;;;;;;;;;;4191126;34;20133;-59
2021/01/10 12:52:27;;;;;;;11.88;10.43;;;;;;;;;;4203156;34;20125;-60
2021/01/10 12:54:53;;;;;;;15.02;10.05;;;;;;;;;;4205482;34;20566;-60
2021/01/10 12:57:19;;;;;;;10.82;9.52;;;;;;;;;;4205592;34;20113;-59
2021/01/10 12:59:45;;;;;;;14.50;10.68;;;;;;;;;;4192705;34;20458;-60
2021/01/10 13:02:11;;;;;;;12.40;10.75;;;;;;;;;;4205466;34;20110;-57
2021/01/10 13:04:37;;;;;;;15.63;11.50;;;;;;;;;;4205603;34;20598;-57
2021/01/10 13:07:03;;;;;;;17.95;12.82;;;;;;;;;;4205927;34;20101;-56
2021/01/10 13:09:29;;;;;;;19.75;11.82;;;;;;;;;;4205647;34;20098;-60
2021/01/10 13:12:00;;;;;;;18.60;12.02;;;;;;;;;;4192862;34;20110;-57
2021/01/10 13:14:25;;;;;;;16.15;12.52;;;;;;;;;;4205589;34;20474;-56
2021/01/10 13:16:51;;;;;;;18.67;13.02;;;;;;;;;;4187637;34;20178;-55
2021/01/10 13:19:18;;;;;;;16.42;11.73;;;;;;;;;;4191681;34;20125;-56
2021/01/10 13:21:44;;;;;;;21.00;11.35;;;;;;;;;;4179134;34;20098;-57
2021/01/10 13:24:10;;;;;;;14.57;11.27;;;;;;;;;;4167673;34;20123;-58
2021/01/10 13:26:37;;;;;;;14.35;10.48;;;;;;;;;;4191816;34;20090;-55
2021/01/10 13:29:03;;;;;;;13.85;10.85;;;;;;;;;;4177947;34;20105;-56
2021/01/10 13:31:38;;;;;;;11.48;9.48;;;;;;;;;;4191848;34;20114;-57
2021/01/10 13:34:04;;;;;;;10.98;9.57;;;;;;;;;;4178914;34;20125;-59
2021/01/10 13:36:30;;;;;;;16.35;9.98;;;;;;;;;;4191635;34;20129;-59
2021/01/10 13:38:56;;;;;;;13.25;9.38;;;;;;;;;;4191502;34;20559;-56
2021/01/10 13:41:24;;;;;;;14.95;10.10;;;;;;;;;;4199048;34;20217;-57
2021/01/10 13:43:50;;;;;;;12.05;8.90;;;;;;;;;;4205452;34;20106;-58
2021/01/10 13:46:19;;;;;;;14.93;10.43;;;;;;;;;;4205492;34;20106;-60
2021/01/10 13:48:45;;;;;;;15.98;9.70;;;;;;;;;;4205436;34;20220;-57
2021/01/10 13:51:19;;;;;;;12.15;9.35;;;;;;;;;;4205511;34;20113;-60
2021/01/10 13:53:45;;;;;;;11.02;9.23;;;;;;;;;;4205426;34;20132;-60
2021/01/10 13:56:18;;;;;;;10.90;9.27;;;;;;;;;;4192229;34;20130;-59
2021/01/10 13:58:44;;;;;;;14.50;9.98;;;;;;;;;;4203692;34;20138;-58
2021/01/10 14:01:11;;;;;;;15.25;10.65;;;;;;;;;;4205153;34;20117;-57
2021/01/10 14:03:37;;;;;;;14.13;10.50;;;;;;;;;;4205356;34;20118;-58
2021/01/10 14:06:04;;;;;;;12.88;10.20;;;;;;;;;;4203649;34;20102;-59
2021/01/10 14:08:30;;;;;;;13.85;10.73;;;;;;;;;;4205323;34;20192;-56
2021/01/10 14:10:56;;;;;;;11.23;8.80;;;;;;;;;;4205139;34;20142;-53
2021/01/10 14:13:22;;;;;;;13.10;9.88;;;;;;;;;;4205310;34;20121;-52
2021/01/10 14:15:48;;;;;;;15.55;10.63;;;;;;;;;;4205114;34;20513;-56
2021/01/10 14:18:14;;;;;;;16.70;11.15;;;;;;;;;;4191706;34;20164;-55
2021/01/10 14:20:40;;;;;;;17.55;10.95;;;;;;;;;;4191579;34;20499;-55
2021/01/10 14:23:06;;;;;;;17.73;11.55;;;;;;;;;;4191263;34;20197;-57
2021/01/10 14:25:33;;;;;;;16.15;9.95;;;;;;;;;;4178397;34;20204;-55
2021/01/10 14:27:59;;;;;;;14.45;9.43;;;;;;;;;;4191574;34;20523;-58
2021/01/10 14:30:25;;;;;;;11.48;9.10;;;;;;;;;;4191248;34;20109;-58